createdAt,value
2019-02-04T00:00:44.982Z,12.90
2019-02-04T00:03:20.002Z,16.10
2019-02-04T00:05:54.600Z,16.63
2019-02-04T00:08:27.986Z,15.07
2019-02-04T00:11:07.094Z,16.40
2019-02-04T00:13:40.420Z,14.60
2019-02-04T00:16:13.021Z,14.30
2019-02-04T00:18:44.830Z,15.13
2019-02-04T00:21:16.496Z,17.27
2019-02-04T00:23:48.187Z,12.87
2019-02-04T00:26:19.652Z,17.87
2019-02-04T00:28:50.615Z,11.13
2019-02-04T00:31:21.302Z,16.10
2019-02-04T00:33:51.528Z,13.50
2019-02-04T00:36:21.722Z,15.10
2019-02-04T00:38:51.948Z,19.17
2019-02-04T00:41:22.141Z,12.57
2019-02-04T00:43:52.377Z,16.73
2019-02-04T00:46:22.563Z,15.47
2019-02-04T00:48:53.042Z,16.83
2019-02-04T00:51:23.439Z,14.60
2019-02-04T00:53:53.974Z,16.10
2019-02-04T00:56:24.403Z,14.67
2019-02-04T00:58:55.138Z,15.00
2019-02-04T01:01:25.650Z,11.20
2019-02-04T01:03:55.867Z,17.33
2019-02-04T01:06:26.064Z,13.17
2019-02-04T01:08:56.311Z,14.87
2019-02-04T01:11:26.865Z,15.07
2019-02-04T01:13:57.066Z,15.70
2019-02-04T01:16:27.526Z,14.60
2019-02-04T01:18:57.729Z,14.43
2019-02-04T01:21:27.947Z,12.63
2019-02-04T01:23:58.133Z,13.97
2019-02-04T01:26:28.365Z,13.73
2019-02-04T01:28:58.556Z,15.00
2019-02-04T01:31:28.765Z,14.57
2019-02-04T01:33:58.959Z,16.77
2019-02-04T01:36:29.424Z,14.50
2019-02-04T01:38:59.858Z,15.13
2019-02-04T01:41:33.047Z,14.93
2019-02-04T01:44:02.610Z,16.57
2019-02-04T01:46:33.050Z,16.70
2019-02-04T01:49:03.245Z,12.53
2019-02-04T01:51:33.828Z,13.40
2019-02-04T01:54:17.893Z,13.50
2019-02-04T01:56:49.204Z,14.87
2019-02-04T01:59:20.303Z,14.40
2019-02-04T02:01:51.264Z,14.73
2019-02-04T02:04:22.187Z,14.53
2019-02-04T02:06:53.502Z,14.90
2019-02-04T02:09:24.840Z,15.23
2019-02-04T02:11:55.132Z,18.37
2019-02-04T02:14:25.841Z,16.00
2019-02-04T02:16:56.085Z,15.10
2019-02-04T02:19:26.662Z,14.97
2019-02-04T02:21:56.904Z,15.47
2019-02-04T02:24:27.098Z,15.30
2019-02-04T02:26:57.942Z,15.57
2019-02-04T02:29:28.178Z,18.83
2019-02-04T02:31:58.410Z,18.30
2019-02-04T02:34:28.618Z,17.70
2019-02-04T02:36:59.059Z,14.03
2019-02-04T02:39:29.290Z,15.17
2019-02-04T02:41:59.482Z,15.07
2019-02-04T02:44:29.943Z,19.23
2019-02-04T02:47:00.153Z,17.10
2019-02-04T02:49:30.610Z,17.37
2019-02-04T02:52:00.809Z,15.63
2019-02-04T02:54:31.537Z,15.83
2019-02-04T02:57:01.731Z,18.27
2019-02-04T02:59:32.203Z,19.73
2019-02-04T03:02:02.645Z,16.90
2019-02-04T03:04:32.896Z,17.57
2019-02-04T03:07:03.107Z,19.30
2019-02-04T03:09:33.334Z,18.70
2019-02-04T03:12:03.536Z,19.00
2019-02-04T03:14:33.990Z,19.50
2019-02-04T03:17:04.246Z,15.80
2019-02-04T03:19:34.710Z,22.03
2019-02-04T03:22:05.178Z,21.33
2019-02-04T03:24:35.689Z,18.60
2019-02-04T03:27:05.951Z,17.63
2019-02-04T03:29:36.424Z,21.10
2019-02-04T03:32:06.662Z,17.80
2019-02-04T03:34:37.278Z,17.83
2019-02-04T03:37:07.513Z,17.90
2019-02-04T03:39:37.943Z,20.27
2019-02-04T03:42:08.253Z,16.13
2019-02-04T03:44:38.683Z,18.63
2019-02-04T03:47:09.198Z,18.90
2019-02-04T03:49:39.386Z,18.23
2019-02-04T03:52:09.684Z,16.70
2019-02-04T03:54:40.180Z,18.40
2019-02-04T03:57:10.410Z,18.37
2019-02-04T03:59:40.854Z,18.50
2019-02-04T04:02:11.382Z,15.90
2019-02-04T04:04:41.590Z,18.17
2019-02-04T04:07:11.819Z,17.93
2019-02-04T04:09:42.082Z,17.17
2019-02-04T04:12:12.317Z,17.60
2019-02-04T04:14:42.506Z,15.07
2019-02-04T04:17:12.729Z,18.53
2019-02-04T04:19:43.015Z,19.60
2019-02-04T04:22:13.474Z,19.70
2019-02-04T04:24:43.683Z,18.83
2019-02-04T04:27:14.210Z,16.60
2019-02-04T04:29:44.442Z,18.97
2019-02-04T04:32:14.680Z,16.90
2019-02-04T04:34:45.133Z,15.63
2019-02-04T04:37:15.506Z,18.90
2019-02-04T04:39:45.975Z,16.00
2019-02-04T04:42:16.183Z,17.53
2019-02-04T04:44:46.414Z,17.40
2019-02-04T04:47:16.842Z,18.37
2019-02-04T04:49:47.074Z,18.63
2019-02-04T04:52:17.509Z,16.63
2019-02-04T04:54:47.751Z,20.87
2019-02-04T04:57:17.945Z,17.87
2019-02-04T04:59:48.173Z,15.87
2019-02-04T05:02:18.380Z,16.13
2019-02-04T05:04:48.618Z,18.03
2019-02-04T05:07:19.433Z,15.40
2019-02-04T05:09:49.651Z,18.07
2019-02-04T05:12:19.855Z,15.80
2019-02-04T05:14:50.093Z,16.13
2019-02-04T05:17:20.532Z,17.27
2019-02-04T05:19:50.787Z,18.40
2019-02-04T05:22:21.283Z,15.20
2019-02-04T05:24:51.506Z,15.50
2019-02-04T05:27:21.954Z,18.23
2019-02-04T05:29:52.422Z,17.43
2019-02-04T05:32:22.657Z,17.00
2019-02-04T05:34:52.884Z,15.77
2019-02-04T05:37:23.075Z,16.20
2019-02-04T05:39:53.303Z,18.23
2019-02-04T05:42:23.552Z,16.93
2019-02-04T05:44:53.747Z,18.13
2019-02-04T05:47:24.504Z,14.00
2019-02-04T05:49:54.705Z,18.80
2019-02-04T05:52:25.150Z,16.70
2019-02-04T05:54:55.348Z,15.43
2019-02-04T05:57:25.580Z,14.67
2019-02-04T05:59:56.023Z,15.30
2019-02-04T06:02:26.558Z,18.33
2019-02-04T06:04:56.750Z,17.10
2019-02-04T06:07:27.222Z,16.93
2019-02-04T06:09:57.418Z,17.43
2019-02-04T06:12:27.895Z,15.87
2019-02-04T06:14:58.090Z,16.70
2019-02-04T06:17:28.562Z,18.03
2019-02-04T06:19:58.779Z,19.13
2019-02-04T06:22:29.014Z,16.70
2019-02-04T06:24:59.455Z,18.93
2019-02-04T06:27:31.605Z,18.20
2019-02-04T06:30:02.082Z,19.50
2019-02-04T06:32:34.562Z,20.97
2019-02-04T06:35:05.839Z,19.10
2019-02-04T06:37:36.308Z,20.93
2019-02-04T06:40:13.048Z,17.00
2019-02-04T06:42:43.738Z,19.87
2019-02-04T06:45:16.477Z,18.53
2019-02-04T06:47:47.020Z,20.80
2019-02-04T06:50:19.081Z,19.33
2019-02-04T06:52:53.156Z,19.33
2019-02-04T06:55:29.793Z,18.53
2019-02-04T06:58:00.091Z,15.23
2019-02-04T07:00:30.927Z,20.80
2019-02-04T07:03:01.586Z,19.30
2019-02-04T07:05:43.247Z,20.43
2019-02-04T07:08:03.942Z,24.10
2019-02-04T07:10:34.182Z,20.50
2019-02-04T07:13:07.658Z,19.57
2019-02-04T07:15:38.264Z,19.20
2019-02-04T07:18:08.463Z,22.70
2019-02-04T07:20:38.943Z,19.07
2019-02-04T07:23:09.144Z,17.97
2019-02-04T07:25:39.390Z,18.53
2019-02-04T07:28:09.890Z,17.77
2019-02-04T07:30:40.368Z,20.47
2019-02-04T07:33:10.808Z,20.13
2019-02-04T07:35:48.466Z,19.20
2019-02-04T07:38:18.665Z,21.07
2019-02-04T07:40:49.158Z,19.70
2019-02-04T07:43:19.595Z,21.30
2019-02-04T07:45:50.034Z,25.93
2019-02-04T07:48:20.266Z,18.23
2019-02-04T07:50:50.724Z,19.47
2019-02-04T07:53:20.934Z,20.30
2019-02-04T07:55:51.670Z,18.23
2019-02-04T07:58:21.901Z,18.63
2019-02-04T08:00:52.366Z,18.73
2019-02-04T08:03:22.737Z,21.63
2019-02-04T08:05:53.207Z,17.50
2019-02-04T08:08:23.646Z,19.87
2019-02-04T08:10:54.111Z,18.83
2019-02-04T08:13:24.545Z,19.23
2019-02-04T08:15:54.765Z,18.00
2019-02-04T08:18:24.949Z,20.03
2019-02-04T08:20:55.177Z,20.27
2019-02-04T08:23:25.806Z,16.80
2019-02-04T08:25:56.318Z,17.07
2019-02-04T08:28:26.546Z,18.07
2019-02-04T08:30:56.979Z,19.50
2019-02-04T08:33:27.218Z,20.00
2019-02-04T08:35:57.778Z,23.47
2019-02-04T08:38:28.010Z,17.10
2019-02-04T08:40:58.272Z,16.30
2019-02-04T08:43:28.502Z,18.43
2019-02-04T08:45:58.702Z,17.20
2019-02-04T08:48:28.942Z,18.47
2019-02-04T08:50:59.509Z,15.50
2019-02-04T08:53:29.962Z,15.40
2019-02-04T08:56:00.155Z,15.70
2019-02-04T08:58:30.391Z,13.33
2019-02-04T09:01:00.590Z,13.77
2019-02-04T09:03:30.817Z,14.23
2019-02-04T09:06:01.418Z,13.87
2019-02-04T09:08:31.626Z,12.03
2019-02-04T09:11:02.088Z,14.13
2019-02-04T09:13:32.518Z,15.53
2019-02-04T09:16:02.994Z,18.10
2019-02-04T09:18:44.174Z,15.17
2019-02-04T09:21:05.506Z,11.13
2019-02-04T09:23:35.725Z,14.30
2019-02-04T09:26:05.950Z,12.67
2019-02-04T09:28:36.141Z,11.47
2019-02-04T09:31:06.366Z,12.97
2019-02-04T09:33:36.874Z,14.70
2019-02-04T09:36:07.344Z,13.43
2019-02-04T09:38:37.540Z,12.33
2019-02-04T09:41:07.765Z,12.73
2019-02-04T09:43:37.982Z,13.00
2019-02-04T09:46:08.438Z,13.30
2019-02-04T09:48:38.651Z,10.17
2019-02-04T09:51:09.087Z,9.77
2019-02-04T09:53:39.334Z,9.57
2019-02-04T09:56:09.767Z,11.70
2019-02-04T09:58:39.981Z,11.50
2019-02-04T10:01:10.359Z,14.47
2019-02-04T10:03:43.742Z,11.63
2019-02-04T10:06:13.937Z,13.93
2019-02-04T10:08:44.142Z,11.80
2019-02-04T10:11:14.568Z,10.17
2019-02-04T10:13:44.783Z,13.53
2019-02-04T10:16:14.978Z,11.00
2019-02-04T10:18:45.301Z,12.87
2019-02-04T10:21:15.642Z,14.03
2019-02-04T10:23:45.949Z,13.10
2019-02-04T10:26:16.204Z,13.17
2019-02-04T10:28:46.442Z,10.90
2019-02-04T10:31:16.927Z,11.53
2019-02-04T10:33:47.236Z,13.53
2019-02-04T10:36:17.527Z,12.13
2019-02-04T10:38:47.742Z,13.70
2019-02-04T10:41:18.253Z,13.10
2019-02-04T10:43:48.662Z,12.93
2019-02-04T10:46:18.911Z,13.83
2019-02-04T10:48:49.343Z,11.87
2019-02-04T10:51:19.912Z,12.73
2019-02-04T10:53:50.151Z,12.60
2019-02-04T10:56:20.878Z,11.73
2019-02-04T10:58:51.059Z,11.97
2019-02-04T11:01:21.297Z,9.83
2019-02-04T11:03:51.768Z,9.93
2019-02-04T11:06:22.057Z,15.83
2019-02-04T11:08:52.604Z,13.80
2019-02-04T11:11:22.907Z,11.73
2019-02-04T11:13:53.199Z,10.37
2019-02-04T11:16:23.449Z,10.80
2019-02-04T11:18:53.643Z,11.67
2019-02-04T11:21:24.009Z,8.07
2019-02-04T11:23:54.273Z,8.40
2019-02-04T11:26:24.557Z,9.83
2019-02-04T11:28:54.806Z,9.50
2019-02-04T11:31:25.008Z,8.63
2019-02-04T11:33:55.201Z,5.87
2019-02-04T11:36:25.874Z,10.17
2019-02-04T11:38:56.330Z,8.50
2019-02-04T11:41:28.564Z,7.90
2019-02-04T11:43:58.870Z,8.87
2019-02-04T11:46:29.087Z,5.37
2019-02-04T11:48:59.811Z,6.77
2019-02-04T11:51:29.998Z,6.43
2019-02-04T11:54:00.443Z,5.30
2019-02-04T11:56:30.873Z,10.07
2019-02-04T11:59:01.103Z,7.10
2019-02-04T12:01:31.963Z,5.70
2019-02-04T12:04:02.262Z,6.60
2019-02-04T12:06:32.451Z,6.63
2019-02-04T12:09:02.850Z,6.67
2019-02-04T12:11:33.288Z,4.73
2019-02-04T12:14:03.498Z,5.93
2019-02-04T12:16:33.928Z,4.90
2019-02-04T12:19:04.811Z,4.47
2019-02-04T12:21:34.994Z,7.20
2019-02-04T12:24:05.474Z,8.53
2019-02-04T12:26:35.732Z,6.50
2019-02-04T12:29:06.351Z,6.17
2019-02-04T12:31:36.796Z,6.67
2019-02-04T12:34:06.977Z,5.57
2019-02-04T12:36:37.496Z,5.90
2019-02-04T12:39:09.970Z,5.23
2019-02-04T12:41:40.427Z,4.97
2019-02-04T12:44:10.874Z,4.40
2019-02-04T12:46:41.301Z,6.33
2019-02-04T12:49:11.755Z,4.50
2019-02-04T12:51:41.969Z,5.13
2019-02-04T12:54:12.158Z,5.07
2019-02-04T12:56:42.454Z,4.13
2019-02-04T12:59:12.681Z,3.63
2019-02-04T13:01:42.906Z,3.27
2019-02-04T13:04:13.386Z,3.97
2019-02-04T13:06:43.641Z,2.40
2019-02-04T13:09:15.763Z,3.10
2019-02-04T13:11:46.214Z,3.93
2019-02-04T13:14:16.638Z,3.83
2019-02-04T13:16:47.093Z,4.20
2019-02-04T13:19:17.286Z,3.00
2019-02-04T13:21:47.750Z,3.17
2019-02-04T13:24:17.953Z,4.03
2019-02-04T13:26:48.401Z,4.20
2019-02-04T13:29:18.846Z,4.03
2019-02-04T13:31:49.270Z,5.20
2019-02-04T13:34:19.498Z,4.13
2019-02-04T13:36:50.002Z,6.80
2019-02-04T13:39:20.227Z,3.30
2019-02-04T13:41:50.675Z,3.17
2019-02-04T13:44:21.118Z,2.93
2019-02-04T13:46:51.561Z,3.07
2019-02-04T13:49:22.408Z,4.10
2019-02-04T13:51:57.473Z,3.37
2019-02-04T13:54:24.515Z,4.13
2019-02-04T13:56:54.947Z,4.93
2019-02-04T13:59:25.166Z,4.07
2019-02-04T14:01:55.346Z,5.33
2019-02-04T14:04:25.813Z,2.73
2019-02-04T14:06:56.323Z,3.23
2019-02-04T14:09:26.630Z,3.97
2019-02-04T14:11:57.080Z,2.37
2019-02-04T14:14:27.533Z,4.10
2019-02-04T14:16:57.948Z,3.70
2019-02-04T14:19:28.179Z,4.70
2019-02-04T14:22:08.632Z,6.03
2019-02-04T14:24:30.318Z,3.73
2019-02-04T14:27:00.772Z,4.13
2019-02-04T14:29:33.733Z,4.07
2019-02-04T14:32:03.181Z,3.50
2019-02-04T14:34:33.371Z,3.97
2019-02-04T14:37:03.591Z,3.40
2019-02-04T14:39:34.099Z,4.97
2019-02-04T14:42:06.610Z,4.80
2019-02-04T14:44:37.938Z,4.60
2019-02-04T14:47:11.474Z,3.07
2019-02-04T14:50:01.226Z,5.17
2019-02-04T14:52:52.930Z,3.57
2019-02-04T14:55:50.419Z,4.40
2019-02-04T14:58:29.827Z,2.93
2019-02-04T15:01:25.380Z,5.20
2019-02-04T15:04:28.633Z,3.50
2019-02-04T15:07:24.238Z,4.10
2019-02-04T15:09:57.774Z,6.77
2019-02-04T15:12:36.630Z,4.57
2019-02-04T15:15:32.238Z,3.27
2019-02-04T15:18:14.138Z,3.90
2019-02-04T15:20:53.695Z,5.00
2019-02-04T15:23:50.158Z,2.87
2019-02-04T15:26:23.639Z,3.37
2019-02-04T15:29:20.579Z,4.97
2019-02-04T15:32:25.120Z,4.70
2019-02-04T15:35:17.683Z,4.23
2019-02-04T15:38:02.653Z,3.50
2019-02-04T15:40:48.123Z,4.00
2019-02-04T15:43:21.396Z,4.43
2019-02-04T15:46:06.651Z,4.93
2019-02-04T15:48:40.134Z,4.07
2019-02-04T15:51:22.215Z,7.00
2019-02-04T15:53:52.747Z,5.90
2019-02-04T15:56:23.362Z,2.70
2019-02-04T15:58:53.558Z,5.43
2019-02-04T16:01:23.788Z,5.27
2019-02-04T16:03:53.976Z,4.60
2019-02-04T16:06:24.201Z,4.70
2019-02-04T16:08:54.640Z,5.77
2019-02-04T16:11:26.599Z,3.87
2019-02-04T16:13:56.806Z,4.10
2019-02-04T16:16:26.990Z,5.10
2019-02-04T16:18:57.434Z,6.17
2019-02-04T16:21:27.919Z,4.03
2019-02-04T16:23:58.138Z,4.13
2019-02-04T16:26:28.327Z,6.40
2019-02-04T16:28:58.544Z,2.93
2019-02-04T16:31:28.970Z,6.17
2019-02-04T16:33:59.202Z,3.40
2019-02-04T16:36:29.649Z,7.63
2019-02-04T16:38:59.862Z,3.60
2019-02-04T16:41:30.355Z,3.60
2019-02-04T16:44:00.820Z,6.77
2019-02-04T16:46:31.251Z,4.60
2019-02-04T16:49:01.741Z,4.30
2019-02-04T16:51:32.176Z,5.40
2019-02-04T16:54:02.384Z,3.23
2019-02-04T16:56:32.608Z,6.10
2019-02-04T16:59:05.915Z,6.90
2019-02-04T17:01:36.510Z,5.10
2019-02-04T17:04:06.795Z,4.33
2019-02-04T17:06:37.069Z,4.03
2019-02-04T17:09:07.998Z,5.77
2019-02-04T17:11:38.216Z,8.27
2019-02-04T17:14:08.662Z,5.97
2019-02-04T17:16:39.158Z,6.40
2019-02-04T17:19:09.349Z,4.17
2019-02-04T17:21:39.582Z,4.37
2019-02-04T17:24:09.767Z,4.37
2019-02-04T17:26:39.981Z,5.60
2019-02-04T17:29:10.807Z,4.97
2019-02-04T17:31:41.002Z,5.57
2019-02-04T17:34:11.189Z,4.80
2019-02-04T17:36:41.406Z,5.30
2019-02-04T17:39:11.666Z,4.33
2019-02-04T17:41:41.966Z,4.80
2019-02-04T17:44:12.394Z,5.37
2019-02-04T17:46:42.843Z,5.43
2019-02-04T17:49:13.402Z,6.53
2019-02-04T17:51:44.012Z,6.47
2019-02-04T17:54:14.433Z,12.00
2019-02-04T17:56:45.267Z,6.97
2019-02-04T17:59:15.680Z,6.37
2019-02-04T18:01:45.904Z,5.00
2019-02-04T18:04:16.414Z,5.53
2019-02-04T18:06:46.643Z,4.90
2019-02-04T18:09:17.196Z,3.70
2019-02-04T18:11:47.446Z,7.23
2019-02-04T18:14:17.895Z,5.37
2019-02-04T18:16:48.067Z,6.13
2019-02-04T18:19:18.519Z,5.00
2019-02-04T18:21:48.944Z,9.30
2019-02-04T18:24:19.666Z,6.67
2019-02-04T18:26:50.095Z,5.83
2019-02-04T18:29:20.349Z,5.63
2019-02-04T18:31:50.526Z,5.73
2019-02-04T18:34:20.998Z,6.47
2019-02-04T18:36:51.232Z,5.60
2019-02-04T18:39:21.454Z,6.53
2019-02-04T18:41:51.718Z,7.00
2019-02-04T18:44:21.929Z,6.87
2019-02-04T18:46:52.774Z,7.83
2019-02-04T18:49:23.222Z,9.07
2019-02-04T18:51:53.406Z,7.63
2019-02-04T18:54:38.545Z,8.03
2019-02-04T18:57:09.374Z,7.97
2019-02-04T18:59:39.865Z,6.87
2019-02-04T19:02:31.811Z,9.53
2019-02-04T19:05:13.519Z,8.87
2019-02-04T19:07:44.078Z,7.97
2019-02-04T19:10:17.444Z,8.00
2019-02-04T19:12:47.633Z,7.60
2019-02-04T19:15:20.025Z,10.33
2019-02-04T19:17:51.115Z,7.57
2019-02-04T19:20:23.047Z,9.57
2019-02-04T19:22:53.547Z,8.73
2019-02-04T19:25:24.026Z,8.03
2019-02-04T19:27:54.259Z,8.40
2019-02-04T19:30:44.102Z,6.93
2019-02-04T19:33:14.543Z,8.23
2019-02-04T19:35:45.074Z,9.47
2019-02-04T19:38:15.265Z,7.10
2019-02-04T19:40:45.474Z,8.30
2019-02-04T19:43:15.953Z,6.80
2019-02-04T19:45:46.196Z,7.37
2019-02-04T19:48:16.384Z,7.17
2019-02-04T19:50:46.590Z,6.80
2019-02-04T19:53:16.774Z,6.43
2019-02-04T19:55:46.998Z,8.80
2019-02-04T19:58:17.218Z,7.83
2019-02-04T20:00:47.514Z,8.27
2019-02-04T20:03:17.772Z,9.93
2019-02-04T20:05:50.987Z,7.50
2019-02-04T20:08:19.896Z,8.00
2019-02-04T20:10:50.543Z,7.47
2019-02-04T20:13:20.965Z,6.13
2019-02-04T20:15:51.191Z,6.53
2019-02-04T20:18:21.393Z,8.23
2019-02-04T20:20:51.611Z,9.87
2019-02-04T20:23:21.847Z,6.20
2019-02-04T20:25:52.197Z,8.33
2019-02-04T20:28:22.426Z,8.50
2019-02-04T20:30:52.843Z,7.53
2019-02-04T20:33:23.063Z,10.53
2019-02-04T20:35:53.481Z,13.97
2019-02-04T20:38:23.694Z,6.77
2019-02-04T20:40:53.914Z,6.07
2019-02-04T20:43:24.123Z,6.73
2019-02-04T20:45:54.309Z,6.53
2019-02-04T20:48:24.528Z,7.53
2019-02-04T20:50:54.710Z,8.10
2019-02-04T20:53:25.439Z,7.17
2019-02-04T20:55:55.621Z,8.67
2019-02-04T20:58:25.841Z,6.90
2019-02-04T21:00:56.037Z,7.33
2019-02-04T21:03:26.496Z,11.67
2019-02-04T21:05:56.960Z,8.17
2019-02-04T21:08:27.414Z,8.20
2019-02-04T21:10:57.891Z,8.67
2019-02-04T21:13:28.117Z,7.67
2019-02-04T21:15:58.314Z,6.60
2019-02-04T21:18:28.530Z,8.00
2019-02-04T21:20:58.994Z,7.10
2019-02-04T21:23:29.349Z,8.37
2019-02-04T21:25:59.547Z,6.80
2019-02-04T21:28:29.778Z,9.17
2019-02-04T21:31:00.002Z,9.37
2019-02-04T21:33:30.203Z,7.47
2019-02-04T21:36:00.497Z,7.50
2019-02-04T21:38:30.677Z,8.50
2019-02-04T21:41:00.911Z,7.83
2019-02-04T21:43:31.327Z,6.93
2019-02-04T21:46:01.542Z,6.63
2019-02-04T21:48:32.233Z,7.60
2019-02-04T21:51:02.818Z,7.03
2019-02-04T21:53:33.009Z,6.67
2019-02-04T21:56:03.634Z,8.20
2019-02-04T21:58:33.822Z,7.10
2019-02-04T22:01:04.901Z,6.97
2019-02-04T22:03:35.097Z,8.03
2019-02-04T22:06:05.373Z,5.77
2019-02-04T22:08:35.623Z,6.40
2019-02-04T22:11:06.110Z,6.23
2019-02-04T22:13:36.296Z,6.10
2019-02-04T22:16:06.586Z,5.57
2019-02-04T22:18:36.761Z,6.63
2019-02-04T22:21:06.986Z,7.03
2019-02-04T22:23:37.408Z,6.20
2019-02-04T22:26:07.641Z,5.40
2019-02-04T22:28:38.246Z,7.77
2019-02-04T22:31:09.271Z,5.17
2019-02-04T22:33:39.915Z,7.53
2019-02-04T22:36:10.326Z,5.33
2019-02-04T22:38:41.099Z,6.63
2019-02-04T22:41:11.787Z,5.80
2019-02-04T22:43:42.330Z,6.50
2019-02-04T22:46:12.651Z,6.37
2019-02-04T22:48:42.920Z,8.17
2019-02-04T22:51:13.166Z,7.30
2019-02-04T22:53:43.403Z,5.40
2019-02-04T22:56:13.663Z,6.23
2019-02-04T22:58:44.178Z,7.13
2019-02-04T23:01:20.387Z,6.07
2019-02-04T23:03:50.616Z,7.70
2019-02-04T23:06:21.094Z,6.07
2019-02-04T23:08:54.521Z,6.73
2019-02-04T23:11:26.895Z,7.70
2019-02-04T23:13:57.201Z,6.63
2019-02-04T23:16:27.751Z,7.43
2019-02-04T23:18:58.198Z,7.50
2019-02-04T23:21:28.390Z,8.20
2019-02-04T23:23:58.886Z,8.40
2019-02-04T23:26:29.367Z,6.07
2019-02-04T23:28:59.809Z,7.33
2019-02-04T23:31:30.395Z,5.73
2019-02-04T23:34:01.268Z,6.60
2019-02-04T23:36:32.287Z,6.23
2019-02-04T23:39:04.782Z,6.23
2019-02-04T23:41:35.364Z,7.60
2019-02-04T23:44:06.864Z,4.50
2019-02-04T23:46:39.287Z,5.97
2019-02-04T23:49:11.804Z,8.03
2019-02-04T23:51:42.493Z,6.33
2019-02-04T23:54:18.958Z,7.13
2019-02-04T23:56:49.463Z,8.07
2019-02-04T23:59:22.772Z,7.13
